aviador You're here:

PAIL Decoded Metar

ILIAMNA in AK, USA
Report Time2017-10-19 08:53:00
UTC Time2017-10-19 09:02:28
Flight Rules vfr VFR
Wind290° at 11 kt
W.Decomp.*RWY 25: 10.1 kt HW 4.3 kt RCW
RWY 35: 2.5 kt HW 10.7 kt LCW
W.Rank290° ranks 19
Current wind is above 290° avg. (6.6)
Visibility9999 m
Phenomena:N/A
Clouds:N/A
Expected CloudBase > 2,000 ft AGL from Temp-Dew spread
CeilingNone
Temp-2°C (ISA -17)
Dew Point-7°C (69% RH)
AAT-8.8°C
QNH997 hPa
Density Alt-1,283 ft
Elevation161 ft
Report Wrong Elevation
Raw Report
PAIL 190853Z AUTO 29011KT 10SM CLR M02/M07 A2944 RMK AO2 SLP971
T10221072 400281044 53010 TSNO=

Extra information for PAIL:More info

Metar Taf Metar & Taf Last 4 Metars F.Rules Stats Wind Profile Meteogram Temp Stats Airport Information Weather charts Add Link Nearby VenuesMetar ALERT Operation Metar Decoded Social comments

AIRNAV info for PAIL